Time;durP1;ratioP1;P1;durP2;ratioP2;P2;SDS_P1;SDS_P2;PMS_P1;PMS_P2;Temp;Humidity;BMP_temperature;BMP_pressure;BME280_temperature;BME280_humidity;BME280_pressure;Samples;Min_cycle;Max_cycle;Signal;HPM_P1;HPM_P2
2024/03/14 00:02:20;;;;;;;0.70;0.70;;;;;;;7.86;100.00;98596.88;6158042;23;20020;-93
2024/03/14 00:04:47;;;;;;;0.70;0.70;;;;;;;7.81;100.00;98595.78;6169102;23;20085;-88
2024/03/14 00:07:14;;;;;;;0.70;0.70;;;;;;;7.72;100.00;98592.78;6168113;23;20017;-93
2024/03/14 00:09:40;;;;;;;0.60;0.60;;;;;;;7.62;100.00;98591.53;6158884;23;20013;-93
2024/03/14 00:12:06;;;;;;;0.60;0.60;;;;;;;7.60;100.00;98587.00;6159011;23;20081;-92
2024/03/14 00:14:33;;;;;;;0.60;0.60;;;;;;;7.54;100.00;98592.09;6155688;23;20009;-94
2024/03/14 00:16:58;;;;;;;0.68;0.68;;;;;;;7.45;100.00;98592.63;6155125;23;20013;-96
2024/03/14 00:19:26;;;;;;;0.70;0.70;;;;;;;7.40;100.00;98589.78;6157154;23;20044;-95
2024/03/14 00:21:54;;;;;;;0.70;0.70;;;;;;;7.43;100.00;98581.06;6160549;23;20089;-92
2024/03/14 00:24:22;;;;;;;0.60;0.60;;;;;;;7.50;100.00;98588.41;6162062;23;20006;-96
2024/03/14 00:26:47;;;;;;;0.63;0.63;;;;;;;7.55;100.00;98583.25;6156665;23;20024;-93
2024/03/14 00:29:13;;;;;;;0.60;0.60;;;;;;;7.68;100.00;98589.09;6157784;23;20056;-95
2024/03/14 00:31:40;;;;;;;0.70;0.70;;;;;;;7.64;100.00;98581.88;6131484;23;20021;-95
2024/03/14 00:34:07;;;;;;;0.60;0.60;;;;;;;7.65;100.00;98588.06;6153801;23;20079;-95
2024/03/14 00:36:37;;;;;;;0.65;0.65;;;;;;;7.69;100.00;98584.69;6135500;23;20014;-93
2024/03/14 00:39:08;;;;;;;0.60;0.60;;;;;;;7.67;100.00;98587.31;6155865;23;20021;-94
2024/03/14 00:41:34;;;;;;;0.60;0.60;;;;;;;7.68;100.00;98581.13;6157940;23;20013;-93
2024/03/14 00:44:03;;;;;;;0.70;0.70;;;;;;;7.71;100.00;98573.31;6164702;23;20017;-92
2024/03/14 00:46:36;;;;;;;0.60;0.60;;;;;;;7.90;100.00;98572.19;6152937;23;20013;-93
2024/03/14 00:49:02;;;;;;;0.50;0.50;;;;;;;7.98;100.00;98569.84;6152056;23;20013;-95
2024/03/14 00:51:29;;;;;;;0.60;0.60;;;;;;;7.92;100.00;98569.63;6154604;23;20012;-94
2024/03/14 00:53:55;;;;;;;0.60;0.60;;;;;;;7.86;100.00;98564.09;6155450;23;20017;-96
2024/03/14 00:56:21;;;;;;;;;;;;;;;7.87;100.00;98565.91;6157885;23;20061;-90
2024/03/14 00:58:48;;;;;;;0.60;0.60;;;;;;;7.84;100.00;98565.78;6181786;23;19912;-90
2024/03/14 01:01:13;;;;;;;0.65;0.65;;;;;;;7.91;100.00;98565.16;6155905;23;20025;-92
2024/03/14 01:03:40;;;;;;;0.70;0.70;;;;;;;7.83;100.00;98564.88;6156749;23;20021;-93
2024/03/14 01:06:11;;;;;;;0.70;0.70;;;;;;;7.84;100.00;98566.66;6156588;23;20064;-90
2024/03/14 01:08:37;;;;;;;0.60;0.60;;;;;;;7.90;100.00;98561.56;6154954;23;20784;-95
2024/03/14 01:11:05;;;;;;;0.70;0.70;;;;;;;7.87;100.00;98550.88;6154223;23;20342;-94
2024/03/14 01:13:30;;;;;;;0.60;0.60;;;;;;;7.88;100.00;98557.97;6153163;23;20664;-95
2024/03/14 01:15:57;;;;;;;0.70;0.70;;;;;;;7.89;100.00;98545.59;6153280;23;20096;-96
2024/03/14 01:18:24;;;;;;;0.60;0.60;;;;;;;7.88;100.00;98549.09;6128806;23;20044;-95
2024/03/14 01:20:50;;;;;;;0.60;0.60;;;;;;;7.86;100.00;98548.16;6155099;23;20055;-93
2024/03/14 01:23:16;;;;;;;0.70;0.70;;;;;;;7.82;100.00;98541.81;6157548;23;20037;-94
2024/03/14 01:25:44;;;;;;;0.70;0.70;;;;;;;7.67;100.00;98542.16;6159996;23;20090;-91
2024/03/14 01:28:10;;;;;;;0.70;0.70;;;;;;;7.56;100.00;98542.59;6157614;23;20096;-95
2024/03/14 01:30:36;;;;;;;0.70;0.70;;;;;;;7.49;100.00;98540.56;6132413;23;20014;-94
2024/03/14 01:33:02;;;;;;;0.60;0.60;;;;;;;7.43;100.00;98546.56;6156604;23;20017;-95
2024/03/14 01:35:29;;;;;;;0.70;0.70;;;;;;;7.31;100.00;98538.09;6162137;23;20102;-95
2024/03/14 01:37:55;;;;;;;0.70;0.70;;;;;;;7.28;100.00;98536.25;6161022;23;19997;-94
2024/03/14 01:40:21;;;;;;;0.60;0.60;;;;;;;7.32;100.00;98535.50;6157394;23;20056;-95
2024/03/14 01:42:54;;;;;;;0.60;0.60;;;;;;;7.24;100.00;98528.09;6156758;23;20472;-95
2024/03/14 01:45:20;;;;;;;0.70;0.70;;;;;;;7.17;100.00;98530.50;6155930;23;20009;-92
2024/03/14 01:47:48;;;;;;;0.60;0.60;;;;;;;7.04;100.00;98532.59;6157299;23;20067;-92
2024/03/14 01:50:15;;;;;;;0.65;0.65;;;;;;;7.05;100.00;98534.44;6156734;23;20056;-92
2024/03/14 01:52:41;;;;;;;0.60;0.60;;;;;;;7.19;100.00;98535.88;6158249;23;20086;-95
2024/03/14 01:55:10;;;;;;;0.60;0.60;;;;;;;7.22;100.00;98524.47;6159259;23;20358;-96
2024/03/14 01:57:36;;;;;;;0.60;0.60;;;;;;;7.23;100.00;98518.31;6158096;23;20009;-96
2024/03/14 02:00:05;;;;;;;0.60;0.60;;;;;;;7.16;100.00;98514.53;6133671;23;20056;-92
2024/03/14 02:02:37;;;;;;;0.60;0.60;;;;;;;7.02;100.00;98516.63;6160142;23;20017;-92
2024/03/14 02:05:13;;;;;;;0.60;0.60;;;;;;;7.00;100.00;98512.13;6136038;23;20020;-95
2024/03/14 02:07:39;;;;;;;0.70;0.70;;;;;;;7.10;100.00;98509.00;6161917;23;20068;-93
2024/03/14 02:10:14;;;;;;;0.70;0.70;;;;;;;7.14;100.00;98506.53;6165186;23;20096;-93
2024/03/14 02:12:40;;;;;;;0.60;0.60;;;;;;;7.11;100.00;98500.19;6165913;23;20016;-92
2024/03/14 02:15:07;;;;;;;0.63;0.63;;;;;;;7.27;100.00;98505.22;6168964;23;20028;-93
2024/03/14 02:17:36;;;;;;;0.70;0.70;;;;;;;7.31;100.00;98501.84;6169477;23;20001;-93
2024/03/14 02:20:01;;;;;;;0.60;0.60;;;;;;;7.28;100.00;98496.44;6170654;23;20009;-92
2024/03/14 02:22:27;;;;;;;0.60;0.60;;;;;;;7.24;100.00;98501.56;6172384;23;20095;-91
2024/03/14 02:24:54;;;;;;;0.60;0.60;;;;;;;7.20;100.00;98496.13;6173996;23;20017;-91
2024/03/14 02:27:20;;;;;;;0.60;0.60;;;;;;;7.18;100.00;98494.25;6174719;23;20019;-90
2024/03/14 02:29:45;;;;;;;0.70;0.70;;;;;;;7.16;100.00;98498.63;6175965;23;20021;-89
2024/03/14 02:32:11;;;;;;;0.60;0.60;;;;;;;7.20;100.00;98505.84;6152801;23;20008;-89
2024/03/14 02:34:37;;;;;;;0.60;0.60;;;;;;;7.30;100.00;98505.34;6152689;23;19997;-91
2024/03/14 02:37:03;;;;;;;0.70;0.70;;;;;;;7.34;100.00;98499.31;6179867;23;20017;-90
2024/03/14 02:39:32;;;;;;;0.60;0.60;;;;;;;7.35;100.00;98498.47;6154758;23;20373;-94
2024/03/14 02:41:59;;;;;;;0.60;0.60;;;;;;;7.44;100.00;98497.91;6177091;23;20014;-91
2024/03/14 02:44:25;;;;;;;0.68;0.68;;;;;;;7.19;100.00;98493.44;6172607;23;20032;-93
2024/03/14 02:46:51;;;;;;;0.60;0.60;;;;;;;7.11;100.00;98500.19;6164837;23;20385;-91
2024/03/14 02:49:18;;;;;;;0.70;0.70;;;;;;;7.10;100.00;98504.59;6168179;23;20025;-90
2024/03/14 02:51:45;;;;;;;0.70;0.70;;;;;;;7.13;100.00;98499.38;6172523;23;20057;-94
2024/03/14 02:54:17;;;;;;;0.70;0.70;;;;;;;7.10;100.00;98491.31;6160100;23;20069;-92
2024/03/14 02:56:47;;;;;;;0.70;0.70;;;;;;;7.08;100.00;98500.06;6134177;23;20072;-93
2024/03/14 02:59:19;;;;;;;0.60;0.60;;;;;;;7.08;100.00;98497.41;6158114;23;20104;-95
2024/03/14 03:01:45;;;;;;;0.70;0.70;;;;;;;7.12;100.00;98491.38;6154376;23;20013;-92
2024/03/14 03:04:11;;;;;;;0.70;0.70;;;;;;;7.09;100.00;98496.56;6153211;23;20017;-93
2024/03/14 03:06:54;;;;;;;0.70;0.70;;;;;;;7.17;100.00;98497.75;6155603;23;20005;-90
2024/03/14 03:09:25;;;;;;;0.60;0.60;;;;;;;7.10;100.00;98493.97;6175470;23;20006;-92
2024/03/14 03:11:52;;;;;;;0.60;0.60;;;;;;;7.19;100.00;98490.78;6175055;23;20037;-91
2024/03/14 03:14:18;;;;;;;0.63;0.63;;;;;;;7.18;100.00;98491.59;6175395;23;20024;-92
2024/03/14 03:16:44;;;;;;;0.70;0.70;;;;;;;7.13;100.00;98487.88;6176670;23;20013;-90
2024/03/14 03:19:10;;;;;;;0.60;0.60;;;;;;;7.05;100.00;98492.00;6179253;23;19998;-90
2024/03/14 03:21:40;;;;;;;0.70;0.70;;;;;;;6.99;100.00;98494.38;6180503;23;20030;-90
2024/03/14 03:24:08;;;;;;;0.60;0.60;;;;;;;6.96;100.00;98489.88;6179558;23;20080;-90
2024/03/14 03:26:35;;;;;;;0.70;0.70;;;;;;;7.06;100.00;98491.16;6177084;23;20010;-90
2024/03/14 03:29:03;;;;;;;0.70;0.70;;;;;;;7.10;100.00;98493.97;6178687;23;20033;-91
2024/03/14 03:31:32;;;;;;;0.70;0.70;;;;;;;7.11;100.00;98490.47;6172907;23;20043;-94
2024/03/14 03:33:58;;;;;;;0.60;0.60;;;;;;;7.02;100.00;98492.78;6155834;23;20092;-96
2024/03/14 03:36:26;;;;;;;0.70;0.70;;;;;;;6.93;100.00;98481.78;6156155;23;20020;-94
2024/03/14 03:38:52;;;;;;;;;;;;;;;6.95;100.00;98482.78;6158356;23;20024;-95
2024/03/14 03:41:23;;;;;;;;;;;;;;;6.85;100.00;98486.81;6158238;23;19920;-94
2024/03/14 03:43:52;;;;;;;0.60;0.60;;;;;;;6.92;100.00;98480.00;6156422;23;19924;-94
2024/03/14 03:46:18;;;;;;;0.60;0.60;;;;;;;6.91;100.00;98487.06;6157284;23;20044;-95
2024/03/14 03:48:44;;;;;;;0.60;0.60;;;;;;;7.02;100.00;98484.81;6161425;23;20017;-94
2024/03/14 03:51:17;;;;;;;0.70;0.70;;;;;;;7.07;100.00;98487.66;6158036;23;20073;-95
2024/03/14 03:53:45;;;;;;;0.70;0.70;;;;;;;7.09;100.00;98484.22;6155839;23;20021;-95
2024/03/14 03:56:11;;;;;;;0.70;0.70;;;;;;;7.09;100.00;98485.94;6157703;23;20016;-95
2024/03/14 03:58:38;;;;;;;0.70;0.70;;;;;;;7.07;100.00;98479.69;6155929;23;20014;-94
2024/03/14 04:01:10;;;;;;;0.60;0.60;;;;;;;6.98;100.00;98474.91;6131388;23;20009;-94
2024/03/14 04:03:40;;;;;;;0.63;0.63;;;;;;;6.96;100.00;98481.94;6155447;23;20021;-94
2024/03/14 04:06:09;;;;;;;0.60;0.60;;;;;;;6.94;100.00;98484.50;6156348;23;20001;-91
2024/03/14 04:08:36;;;;;;;0.60;0.60;;;;;;;6.86;100.00;98485.06;6155595;23;20067;-95
2024/03/14 04:11:02;;;;;;;0.70;0.70;;;;;;;6.84;100.00;98479.69;6155047;23;20017;-92
2024/03/14 04:13:28;;;;;;;0.60;0.60;;;;;;;6.87;100.00;98485.13;6154808;23;20016;-93
2024/03/14 04:15:53;;;;;;;0.70;0.70;;;;;;;6.83;100.00;98477.88;6130756;23;20037;-94
2024/03/14 04:18:21;;;;;;;0.60;0.60;;;;;;;6.83;100.00;98476.97;6156686;23;20012;-96
2024/03/14 04:20:49;;;;;;;0.70;0.70;;;;;;;6.81;100.00;98482.22;6128409;23;20060;-92
2024/03/14 04:23:15;;;;;;;0.70;0.70;;;;;;;6.79;100.00;98483.91;6126823;23;20096;-95
2024/03/14 04:25:41;;;;;;;0.60;0.60;;;;;;;6.89;100.00;98482.50;6152389;23;20006;-93
2024/03/14 04:28:09;;;;;;;0.70;0.70;;;;;;;6.86;100.00;98488.63;6155494;23;20060;-90
2024/03/14 04:30:36;;;;;;;0.70;0.70;;;;;;;6.74;100.00;98487.22;6155744;23;20024;-93
2024/03/14 04:33:02;;;;;;;0.70;0.70;;;;;;;6.82;100.00;98472.53;6133089;23;20017;-91
2024/03/14 04:35:28;;;;;;;0.60;0.60;;;;;;;6.74;100.00;98482.81;6155612;23;20299;-92
2024/03/14 04:37:53;;;;;;;0.70;0.70;;;;;;;6.66;100.00;98476.31;6156846;23;20013;-92
2024/03/14 04:40:21;;;;;;;0.60;0.60;;;;;;;6.58;100.00;98476.00;6159414;23;20020;-93
2024/03/14 04:42:47;;;;;;;0.80;0.80;;;;;;;6.54;100.00;98479.38;6162103;23;20017;-91
2024/03/14 04:45:19;;;;;;;0.70;0.70;;;;;;;6.51;100.00;98480.97;6160501;23;20071;-88
2024/03/14 04:47:45;;;;;;;0.70;0.70;;;;;;;6.39;100.00;98470.78;6163924;23;20013;-91
2024/03/14 04:50:14;;;;;;;0.70;0.70;;;;;;;6.31;100.00;98475.75;6162808;23;20019;-91
2024/03/14 04:52:40;;;;;;;0.70;0.70;;;;;;;6.22;100.00;98480.66;6138238;23;20014;-94
2024/03/14 04:55:10;;;;;;;0.70;0.70;;;;;;;6.19;100.00;98480.56;6160676;23;20021;-90
2024/03/14 04:57:37;;;;;;;0.70;0.70;;;;;;;6.15;100.00;98474.22;6168687;23;20102;-91
2024/03/14 05:00:20;;;;;;;0.70;0.70;;;;;;;6.09;100.00;98481.03;6156275;23;20017;-93
2024/03/14 05:02:51;;;;;;;0.70;0.70;;;;;;;5.99;100.00;98476.13;6156241;23;20459;-94
2024/03/14 05:05:20;;;;;;;0.70;0.70;;;;;;;5.95;100.00;98485.72;6158211;23;20053;-91
2024/03/14 05:07:49;;;;;;;0.70;0.70;;;;;;;6.14;100.00;98483.03;6166941;23;20045;-93
2024/03/14 05:10:18;;;;;;;0.60;0.60;;;;;;;6.21;100.00;98476.22;6159202;23;20132;-95
2024/03/14 05:12:45;;;;;;;0.65;0.65;;;;;;;6.19;100.00;98474.38;6156792;23;20085;-93
2024/03/14 05:15:11;;;;;;;0.70;0.70;;;;;;;6.05;100.00;98479.06;6156955;23;20013;-92
2024/03/14 05:17:39;;;;;;;0.70;0.70;;;;;;;5.96;100.00;98484.88;6156927;23;20021;-93
2024/03/14 05:20:10;;;;;;;0.70;0.70;;;;;;;5.80;100.00;98488.56;6182006;23;20016;-93
2024/03/14 05:22:36;;;;;;;0.70;0.70;;;;;;;5.70;100.00;98483.72;6131182;23;20018;-95
2024/03/14 05:25:09;;;;;;;0.70;0.70;;;;;;;5.64;100.00;98484.31;6153589;23;20035;-95
2024/03/14 05:27:35;;;;;;;0.70;0.70;;;;;;;5.63;100.00;98476.34;6128671;23;20036;-92
2024/03/14 05:30:00;;;;;;;0.70;0.70;;;;;;;5.61;100.00;98478.03;6154856;23;20024;-91
2024/03/14 05:32:32;;;;;;;0.70;0.70;;;;;;;5.52;100.00;98475.88;6184299;23;20028;-93
2024/03/14 05:34:58;;;;;;;0.70;0.70;;;;;;;5.53;100.00;98468.81;6159225;23;20413;-92
2024/03/14 05:37:26;;;;;;;0.70;0.70;;;;;;;5.63;100.00;98471.94;6160032;23;20036;-90
2024/03/14 05:39:53;;;;;;;0.70;0.70;;;;;;;5.57;100.00;98471.69;6161776;23;20010;-91
2024/03/14 05:42:19;;;;;;;0.70;0.70;;;;;;;5.52;100.00;98475.88;6158885;23;20025;-93
2024/03/14 05:44:48;;;;;;;0.70;0.70;;;;;;;5.50;100.00;98466.03;6158878;23;20036;-94
2024/03/14 05:47:17;;;;;;;0.70;0.70;;;;;;;5.45;100.00;98475.50;6133117;23;20009;-93
2024/03/14 05:49:45;;;;;;;0.70;0.70;;;;;;;5.57;100.00;98468.13;6157804;23;20017;-93
2024/03/14 05:52:13;;;;;;;0.80;0.80;;;;;;;5.59;100.00;98471.72;6157821;23;20020;-92
2024/03/14 05:54:47;;;;;;;0.70;0.70;;;;;;;5.52;100.00;98467.03;6159834;23;20010;-94
2024/03/14 05:57:16;;;;;;;0.73;0.73;;;;;;;5.54;100.00;98470.63;6132940;23;20021;-95
2024/03/14 05:59:46;;;;;;;0.70;0.70;;;;;;;5.57;100.00;98476.06;6158326;23;20100;-94
2024/03/14 06:02:14;;;;;;;0.70;0.70;;;;;;;5.67;100.00;98478.28;6158095;23;20079;-93
2024/03/14 06:04:42;;;;;;;0.80;0.80;;;;;;;5.76;100.00;98477.78;6133470;23;20088;-93
2024/03/14 06:07:13;;;;;;;0.80;0.80;;;;;;;5.81;100.00;98479.78;6158989;23;20112;-94
2024/03/14 06:09:42;;;;;;;0.80;0.80;;;;;;;5.80;100.00;98475.34;6157648;23;20022;-96
2024/03/14 06:12:08;;;;;;;0.70;0.70;;;;;;;5.82;100.00;98478.94;6158815;23;20013;-93
2024/03/14 06:14:39;;;;;;;0.80;0.80;;;;;;;5.94;100.00;98475.03;6157466;23;20651;-94
2024/03/14 06:17:07;;;;;;;0.70;0.70;;;;;;;5.99;100.00;98479.72;6158452;23;20006;-95
2024/03/14 06:19:33;;;;;;;0.70;0.70;;;;;;;6.03;100.00;98472.78;6158552;23;20104;-95
2024/03/14 06:21:58;;;;;;;0.70;0.70;;;;;;;6.12;100.00;98474.09;6161651;23;20013;-96
2024/03/14 06:24:24;;;;;;;0.80;0.80;;;;;;;6.22;100.00;98471.81;6160899;23;20013;-92
2024/03/14 06:26:50;;;;;;;0.70;0.70;;;;;;;6.24;100.00;98479.00;6161436;23;20048;-93
2024/03/14 06:29:22;;;;;;;0.75;0.75;;;;;;;6.24;100.00;98480.75;6164428;23;20014;-93
2024/03/14 06:31:49;;;;;;;0.70;0.70;;;;;;;6.40;100.00;98486.75;6139271;23;20089;-95
2024/03/14 06:34:15;;;;;;;0.70;0.70;;;;;;;6.50;100.00;98495.06;6163793;23;20024;-94
2024/03/14 06:36:41;;;;;;;0.70;0.70;;;;;;;6.49;100.00;98486.22;6166408;23;20005;-94
2024/03/14 06:39:07;;;;;;;0.70;0.70;;;;;;;6.54;100.00;98486.41;6163666;23;20015;-93
2024/03/14 06:41:34;;;;;;;0.70;0.70;;;;;;;6.64;100.00;98485.94;6162900;23;20005;-93
2024/03/14 06:44:01;;;;;;;0.70;0.70;;;;;;;6.82;100.00;98489.34;6166775;23;20014;-92
2024/03/14 06:46:28;;;;;;;0.70;0.70;;;;;;;6.91;100.00;98481.75;6165954;23;20084;-92
2024/03/14 06:48:54;;;;;;;;;;;;;;;7.08;100.00;98493.00;6143156;23;20032;-93
2024/03/14 06:51:41;;;;;;;0.68;0.68;;;;;;;7.12;100.00;98492.28;6145832;23;19924;-89
2024/03/14 06:54:08;;;;;;;0.90;0.90;;;;;;;7.24;100.00;98483.00;6172332;23;20021;-89
2024/03/14 06:56:35;;;;;;;0.70;0.70;;;;;;;7.30;100.00;98489.44;6176201;23;20069;-89
2024/03/14 06:59:17;;;;;;;0.70;0.70;;;;;;;7.44;100.00;98487.31;6176600;23;19993;-89
2024/03/14 07:01:46;;;;;;;0.70;0.70;;;;;;;7.61;100.00;98487.91;6171890;23;20022;-91
2024/03/14 07:04:14;;;;;;;0.70;0.70;;;;;;;7.77;100.00;98490.28;6153421;23;20037;-92
2024/03/14 07:06:41;;;;;;;0.68;0.68;;;;;;;7.74;100.00;98494.59;6178435;23;20011;-89
2024/03/14 07:09:09;;;;;;;0.70;0.70;;;;;;;7.78;100.00;98500.06;6154101;23;20028;-88
2024/03/14 07:11:36;;;;;;;0.70;0.70;;;;;;;8.01;100.00;98497.34;6177988;23;20073;-90
2024/03/14 07:14:07;;;;;;;0.60;0.60;;;;;;;8.16;100.00;98501.41;6177729;23;19993;-90
2024/03/14 07:16:34;;;;;;;0.70;0.70;;;;;;;8.32;99.39;98504.59;6171103;23;20012;-91
2024/03/14 07:19:00;;;;;;;0.70;0.70;;;;;;;8.32;98.54;98501.94;6174828;23;20017;-89
2024/03/14 07:21:30;;;;;;;0.60;0.60;;;;;;;8.45;98.53;98496.22;6176180;23;20231;-94
2024/03/14 07:23:55;;;;;;;0.60;0.60;;;;;;;8.57;97.34;98498.38;6173082;23;20017;-94
2024/03/14 07:26:22;;;;;;;0.70;0.70;;;;;;;8.55;95.49;98498.34;6164257;23;20010;-91
2024/03/14 07:28:57;;;;;;;0.60;0.60;;;;;;;8.61;95.51;98500.28;6163357;23;20017;-93
2024/03/14 07:31:28;;;;;;;0.60;0.60;;;;;;;8.47;94.69;98498.06;6139041;23;20013;-92
2024/03/14 07:33:58;;;;;;;0.60;0.60;;;;;;;8.48;94.45;98499.91;6167717;23;20001;-90
2024/03/14 07:36:29;;;;;;;0.60;0.60;;;;;;;8.58;94.18;98494.91;6140942;23;20010;-92
2024/03/14 07:38:58;;;;;;;0.68;0.68;;;;;;;8.50;93.37;98491.97;6186096;23;20068;-91
2024/03/14 07:41:25;;;;;;;0.60;0.60;;;;;;;8.69;93.42;98493.47;6166125;23;20017;-91
2024/03/14 07:43:53;;;;;;;0.70;0.70;;;;;;;9.01;92.11;98481.22;6161883;23;20566;-90
2024/03/14 07:46:19;;;;;;;0.60;0.60;;;;;;;9.29;90.53;98482.94;6162897;23;20027;-91
2024/03/14 07:48:49;;;;;;;0.60;0.60;;;;;;;9.27;88.88;98479.34;6159821;23;20496;-93
2024/03/14 07:51:15;;;;;;;0.60;0.60;;;;;;;9.60;87.50;98478.53;6163328;23;20064;-90
2024/03/14 07:53:42;;;;;;;0.70;0.70;;;;;;;9.65;87.86;98482.22;6164704;23;20041;-91
2024/03/14 07:56:12;;;;;;;0.70;0.70;;;;;;;9.67;87.06;98480.50;6138495;23;20037;-90
2024/03/14 07:58:39;;;;;;;0.60;0.60;;;;;;;9.77;86.31;98482.56;6154037;23;20017;-90
2024/03/14 08:01:15;;;;;;;0.70;0.70;;;;;;;9.98;84.98;98484.94;6156319;23;20008;-92
2024/03/14 08:03:48;;;;;;;0.60;0.60;;;;;;;10.01;84.77;98483.28;6156577;23;20033;-92
2024/03/14 08:06:16;;;;;;;0.60;0.60;;;;;;;10.10;84.37;98484.34;6155365;23;20683;-92
2024/03/14 08:08:42;;;;;;;0.60;0.60;;;;;;;10.36;83.81;98486.00;6155095;23;20013;-90
2024/03/14 08:11:12;;;;;;;0.60;0.60;;;;;;;10.28;82.62;98493.78;6154773;23;20081;-92
2024/03/14 08:13:39;;;;;;;0.60;0.60;;;;;;;10.41;83.19;98488.78;6154004;23;20037;-93
2024/03/14 08:16:22;;;;;;;0.60;0.60;;;;;;;10.78;81.13;98486.19;6179515;23;20703;-92
2024/03/14 08:18:51;;;;;;;0.50;0.50;;;;;;;11.36;79.22;98483.94;6152867;23;20064;-90
2024/03/14 08:21:16;;;;;;;0.50;0.50;;;;;;;11.25;79.52;98491.69;6152922;23;20077;-92
2024/03/14 08:23:43;;;;;;;0.50;0.50;;;;;;;10.56;79.86;98489.16;6171546;23;20013;-91
2024/03/14 08:26:09;;;;;;;0.60;0.60;;;;;;;10.64;78.26;98482.28;6173816;23;20009;-92
2024/03/14 08:28:38;;;;;;;0.50;0.50;;;;;;;11.38;75.99;98489.31;6171462;23;20087;-88
2024/03/14 08:31:07;;;;;;;0.60;0.60;;;;;;;11.76;74.87;98484.78;6163236;23;20028;-89
2024/03/14 08:33:35;;;;;;;0.50;0.50;;;;;;;12.62;70.59;98490.00;6173214;23;20005;-87
2024/03/14 08:36:04;;;;;;;;;;;;;;;12.56;70.39;98501.50;6171339;23;20029;-88
2024/03/14 08:38:30;;;;;;;0.50;0.50;;;;;;;12.04;71.38;98489.84;6148659;23;19927;-87
2024/03/14 08:40:57;;;;;;;0.50;0.50;;;;;;;11.70;73.51;98482.91;6174718;23;20021;-89
2024/03/14 08:43:25;;;;;;;0.50;0.50;;;;;;;11.65;73.80;98492.59;6175690;23;20254;-89
2024/03/14 08:45:52;;;;;;;0.50;0.50;;;;;;;13.14;68.85;98482.81;6176142;23;20081;-88
2024/03/14 08:48:18;;;;;;;0.50;0.50;;;;;;;13.84;67.68;98486.47;6176368;23;20013;-89
2024/03/14 08:50:44;;;;;;;0.40;0.40;;;;;;;13.58;66.74;98480.78;6178264;23;20007;-89
2024/03/14 08:53:12;;;;;;;0.30;0.30;;;;;;;14.23;65.65;98478.84;6163673;23;20017;-87
2024/03/14 08:55:50;;;;;;;0.40;0.40;;;;;;;13.34;67.87;98477.78;6130018;23;20100;-89
2024/03/14 08:58:18;;;;;;;0.30;0.30;;;;;;;14.19;64.62;98472.56;6152687;23;20472;-89
2024/03/14 09:00:43;;;;;;;0.30;0.30;;;;;;;15.45;60.74;98465.56;6153762;23;20028;-88
2024/03/14 09:03:08;;;;;;;0.30;0.30;;;;;;;15.44;60.60;98461.06;6152302;23;20010;-89
2024/03/14 09:05:34;;;;;;;0.30;0.30;;;;;;;15.69;59.57;98456.75;6152589;23;20080;-87
2024/03/14 09:07:59;;;;;;;0.32;0.32;;;;;;;15.27;60.22;98460.97;6152386;23;20093;-88
2024/03/14 09:10:25;;;;;;;0.35;0.35;;;;;;;13.63;65.46;98466.53;6152388;23;20013;-88
2024/03/14 09:12:55;;;;;;;0.30;0.30;;;;;;;16.69;58.07;98458.78;6129724;23;20604;-88
2024/03/14 09:15:22;;;;;;;0.30;0.30;;;;;;;17.37;53.53;98451.53;6153688;23;20013;-89
2024/03/14 09:17:48;;;;;;;0.20;0.20;;;;;;;17.96;52.39;98447.75;6152903;23;20001;-87
2024/03/14 09:20:20;;;;;;;0.20;0.20;;;;;;;18.13;51.64;98442.28;6158207;23;20013;-88
2024/03/14 09:22:53;;;;;;;0.20;0.20;;;;;;;18.38;51.06;98438.50;6152622;23;20009;-90
2024/03/14 09:25:21;;;;;;;0.20;0.20;;;;;;;18.67;49.37;98438.31;6151645;23;20435;-88
2024/03/14 09:27:46;;;;;;;0.20;0.20;;;;;;;17.87;51.45;98437.00;6116618;23;20350;-88
2024/03/14 09:30:13;;;;;;;0.20;0.20;;;;;;;16.99;53.89;98438.13;6144724;23;20020;-89
2024/03/14 09:32:42;;;;;;;0.20;0.20;;;;;;;18.18;50.42;98432.34;6123987;23;20029;-86
2024/03/14 09:35:16;;;;;;;0.20;0.20;;;;;;;17.26;53.44;98437.19;6168780;23;20057;-87
2024/03/14 09:37:45;;;;;;;0.10;0.10;;;;;;;17.49;53.14;98434.44;6165274;23;20009;-88
2024/03/14 09:40:14;;;;;;;0.20;0.20;;;;;;;16.39;54.96;98438.13;6167740;23;20017;-87
2024/03/14 09:42:47;;;;;;;0.20;0.20;;;;;;;16.57;54.87;98445.28;6160095;23;20017;-88
2024/03/14 09:45:13;;;;;;;0.20;0.20;;;;;;;16.75;55.42;98439.94;6159168;23;20045;-87
2024/03/14 09:47:39;;;;;;;0.20;0.20;;;;;;;15.63;55.36;98437.00;6153383;23;20502;-88
2024/03/14 09:50:17;;;;;;;0.20;0.20;;;;;;;16.83;53.45;98432.75;6155031;23;20013;-88
2024/03/14 09:52:44;;;;;;;0.20;0.20;;;;;;;16.74;53.28;98427.38;6154466;23;20017;-88
2024/03/14 09:55:13;;;;;;;0.20;0.20;;;;;;;16.44;55.40;98435.44;6152282;23;20052;-88
2024/03/14 09:57:40;;;;;;;0.20;0.20;;;;;;;15.17;57.06;98438.50;6151492;23;20009;-89
2024/03/14 10:00:11;;;;;;;0.20;0.20;;;;;;;16.95;52.99;98429.16;6126951;23;20010;-86
2024/03/14 10:02:41;;;;;;;0.22;0.22;;;;;;;15.70;56.63;98437.00;6150477;23;20014;-87
2024/03/14 10:05:12;;;;;;;0.30;0.30;;;;;;;15.59;55.64;98428.88;6152627;23;20014;-89
2024/03/14 10:07:38;;;;;;;0.20;0.20;;;;;;;15.25;57.82;98423.31;6153959;23;20013;-90
2024/03/14 10:10:05;;;;;;;0.30;0.30;;;;;;;16.47;54.37;98428.22;6154017;23;20009;-91
2024/03/14 10:12:31;;;;;;;;;;;;;;;15.14;57.72;98430.44;6153792;23;20468;-89
2024/03/14 10:15:16;;;;;;;0.30;0.30;;;;;;;15.77;56.87;98418.22;6155540;23;20628;-90
2024/03/14 10:17:44;;;;;;;0.30;0.30;;;;;;;16.67;54.85;98421.06;6159769;23;20021;-88
2024/03/14 10:20:12;;;;;;;0.30;0.30;;;;;;;17.39;51.40;98411.97;6159634;23;20001;-89
2024/03/14 10:22:40;;;;;;;0.30;0.30;;;;;;;17.39;50.58;98411.97;6137154;23;20021;-89
2024/03/14 10:25:14;;;;;;;0.30;0.30;;;;;;;18.01;48.71;98399.13;6153567;23;20064;-89
2024/03/14 10:27:44;;;;;;;0.25;0.25;;;;;;;18.28;48.35;98408.88;6156010;23;20017;-91
2024/03/14 10:30:12;;;;;;;0.20;0.20;;;;;;;15.80;54.68;98420.91;6127790;23;20327;-88
2024/03/14 10:32:41;;;;;;;0.35;0.35;;;;;;;16.12;53.82;98412.03;6127481;23;20819;-87
2024/03/14 10:35:10;;;;;;;0.30;0.30;;;;;;;16.88;54.80;98414.78;6154406;23;20453;-90
2024/03/14 10:37:43;;;;;;;0.30;0.30;;;;;;;16.15;54.17;98404.88;6131355;23;20101;-88
2024/03/14 10:40:20;;;;;;;0.25;0.25;;;;;;;17.88;49.98;98391.13;6173634;23;20021;-90
2024/03/14 10:42:54;;;;;;;0.20;0.20;;;;;;;18.18;49.62;98395.44;6159502;23;20016;-89
2024/03/14 10:45:24;;;;;;;0.20;0.20;;;;;;;18.51;48.13;98392.50;6156125;23;20021;-87
2024/03/14 10:47:51;;;;;;;0.20;0.20;;;;;;;17.53;50.44;98393.03;6156671;23;20395;-88
2024/03/14 10:50:19;;;;;;;0.20;0.20;;;;;;;16.25;52.38;98399.50;6130321;23;20505;-86
2024/03/14 10:52:49;;;;;;;0.20;0.20;;;;;;;15.76;54.55;98402.06;6159162;23;20064;-90
2024/03/14 10:55:17;;;;;;;0.30;0.30;;;;;;;17.31;51.79;98397.63;6154653;23;20033;-88
2024/03/14 10:57:45;;;;;;;0.20;0.20;;;;;;;17.68;50.15;98393.91;6154561;23;20006;-87
2024/03/14 11:00:17;;;;;;;0.20;0.20;;;;;;;16.95;50.77;98391.41;6158239;23;20018;-89
2024/03/14 11:02:47;;;;;;;0.30;0.30;;;;;;;18.57;48.57;98387.94;6155244;23;20015;-89
2024/03/14 11:05:13;;;;;;;0.30;0.30;;;;;;;18.66;48.34;98381.56;6132341;23;20021;-88
2024/03/14 11:07:40;;;;;;;0.30;0.30;;;;;;;18.22;48.78;98380.13;6160462;23;20017;-88
2024/03/14 11:10:18;;;;;;;0.30;0.30;;;;;;;17.31;51.78;98382.34;6149973;23;20041;-88
2024/03/14 11:12:47;;;;;;;0.30;0.30;;;;;;;16.62;52.72;98382.47;6160977;23;20070;-89
2024/03/14 11:15:16;;;;;;;0.30;0.30;;;;;;;16.82;53.28;98377.09;6161579;23;20088;-88
2024/03/14 11:17:43;;;;;;;0.30;0.30;;;;;;;19.67;47.00;98358.91;6162886;23;20009;-89
2024/03/14 11:20:18;;;;;;;0.20;0.20;;;;;;;20.48;42.73;98360.44;6162967;23;20521;-88
2024/03/14 11:22:47;;;;;;;0.20;0.20;;;;;;;19.36;46.16;98363.78;6169347;23;20013;-88
2024/03/14 11:25:17;;;;;;;0.20;0.20;;;;;;;19.38;46.58;98361.94;6168282;23;20014;-88
2024/03/14 11:27:45;;;;;;;0.20;0.20;;;;;;;20.09;45.00;98357.41;6166632;23;20085;-88
2024/03/14 11:30:15;;;;;;;0.20;0.20;;;;;;;19.17;45.76;98353.16;6157225;23;20021;-89
2024/03/14 11:32:55;;;;;;;0.20;0.20;;;;;;;18.05;49.51;98353.22;6157696;23;20013;-89
2024/03/14 11:35:38;;;;;;;0.20;0.20;;;;;;;18.84;47.56;98348.13;6155152;23;20024;-88
2024/03/14 11:38:18;;;;;;;0.20;0.20;;;;;;;17.93;50.41;98350.63;6155404;23;20402;-88
2024/03/14 11:40:45;;;;;;;0.20;0.20;;;;;;;18.04;48.36;98342.44;6128019;23;20053;-87
2024/03/14 11:43:20;;;;;;;0.20;0.20;;;;;;;20.47;43.94;98329.72;6151518;23;20138;-87